Albert, Oklahoma
Current Conditions -  °F | °C
As of 2:15 PM on Saturday 25 Oct 2014 (Local Time) from KOJA Reporting Station
Clear Clear  
Wind Chill: 86°   Ceiling: Unl
Heat Index: 86°   Visibility: 10mi
Dew Point: 55°   Wind: 7mph
Humidity: 35%   Direction: 230°SW
Pressure: 30.07"   Gusts: NA
Location:  35.23°N, 98.41°W
Report Text: KOJA 251915Z AUTO 23006KT 10SM CLR 30/13 A3007 RMK AO2
Loading
Personal Weather Stations






























Interactive Weather Map New forecast layout! Learn more

10-Day Weather Forecast

Advertisements
Track Severe Weather on mobile